Auburn, New Hampshire
Current Conditions -  °F | °C
As of 5:53 PM on Saturday 22 Nov 2014 (Local Time) from KMHT Reporting Station
Broken Clouds Broken Clouds  
Wind Chill: 34°   Ceiling: 4500
Heat Index: 39°   Visibility: 10mi
Dew Point:   Wind: 7mph
Humidity: 28%   Direction: 200°SSW
Pressure: 30.05"   Gusts: NA
Location:  43°N, 71.35°W
Report Text: KMHT 222253Z 20006KT 10SM BKN045 BKN200 04/M13 A3005 RMK AO2 SLP194 T00391133
Loading
Personal Weather Stations






























Interactive Weather Map New forecast layout! Learn more

10-Day Weather Forecast

Advertisements
Track Severe Weather on mobile